createdAt,value
2017-12-30T00:00:32.568Z,99399.84
2017-12-30T00:01:35.053Z,99393.16
2017-12-30T00:02:37.532Z,99395.51
2017-12-30T00:03:40.013Z,99393.51
2017-12-30T00:04:42.494Z,99390.37
2017-12-30T00:05:44.967Z,99389.56
2017-12-30T00:06:47.443Z,99391.91
2017-12-30T00:07:49.910Z,99397.16
2017-12-30T00:08:52.374Z,99402.65
2017-12-30T00:09:54.847Z,99409.84
2017-12-30T00:10:57.328Z,99403.96
2017-12-30T00:11:59.800Z,99401.80
2017-12-30T00:13:02.274Z,99398.82
2017-12-30T00:14:04.740Z,99397.05
2017-12-30T00:15:07.203Z,99407.62
2017-12-30T00:16:09.672Z,99408.81
2017-12-30T00:17:12.143Z,99412.53
2017-12-30T00:18:14.626Z,99415.50
2017-12-30T00:19:17.085Z,99421.21
2017-12-30T00:20:19.542Z,99420.24
2017-12-30T00:21:22.016Z,99424.52
2017-12-30T00:22:24.488Z,99424.52
2017-12-30T00:23:26.960Z,99422.58
2017-12-30T00:24:29.421Z,99424.52
2017-12-30T00:25:31.900Z,99425.89
2017-12-30T00:26:34.365Z,99429.20
2017-12-30T00:27:36.821Z,99432.92
2017-12-30T00:28:39.304Z,99427.84
2017-12-30T00:29:41.770Z,99425.84
2017-12-30T00:30:44.250Z,99430.75
2017-12-30T00:31:46.710Z,99430.75
2017-12-30T00:32:49.188Z,99423.27
2017-12-30T00:33:51.663Z,99427.38
2017-12-30T00:34:54.160Z,99422.70
2017-12-30T00:35:56.632Z,99426.81
2017-12-30T00:36:59.112Z,99423.67
2017-12-30T00:38:01.600Z,99425.04
2017-12-30T00:39:04.054Z,99424.64
2017-12-30T00:40:06.528Z,99426.58
2017-12-30T00:41:09.008Z,99421.09
2017-12-30T00:42:11.492Z,99428.92
2017-12-30T00:43:13.964Z,99427.15
2017-12-30T00:44:16.422Z,99429.48
2017-12-30T00:45:18.893Z,99424.58
2017-12-30T00:46:21.355Z,99426.48
2017-12-30T00:47:23.857Z,99424.48
2017-12-30T00:48:26.413Z,99428.77
2017-12-30T00:49:28.874Z,99432.08
2017-12-30T00:50:31.334Z,99436.37
2017-12-30T00:51:33.795Z,99430.08
2017-12-30T00:52:36.276Z,99427.91
2017-12-30T00:53:38.733Z,99423.00
2017-12-30T00:54:41.194Z,99425.69
2017-12-30T00:55:43.653Z,99425.45
2017-12-30T00:56:46.114Z,99427.97
2017-12-30T00:57:48.595Z,99428.94
2017-12-30T00:58:51.072Z,99431.84
2017-12-30T00:59:53.539Z,99426.77
2017-12-30T01:00:56.014Z,99424.02
2017-12-30T01:01:58.495Z,99422.83
2017-12-30T01:03:00.970Z,99426.94
2017-12-30T01:04:03.448Z,99422.02
2017-12-30T01:05:05.910Z,99425.91
2017-12-30T01:06:08.369Z,99433.33
2017-12-30T01:07:10.850Z,99437.44
2017-12-30T01:08:13.328Z,99433.90
2017-12-30T01:09:15.804Z,99432.13
2017-12-30T01:10:18.332Z,99440.52
2017-12-30T01:11:20.804Z,99447.11
2017-12-30T01:12:23.276Z,99453.97
2017-12-30T01:13:25.752Z,99447.11
2017-12-30T01:14:28.214Z,99441.23
2017-12-30T01:15:30.688Z,99445.73
2017-12-30T01:16:33.164Z,99449.45
2017-12-30T01:17:35.626Z,99450.69
2017-12-30T01:18:38.090Z,99454.36
2017-12-30T01:19:40.577Z,99456.70
2017-12-30T01:20:43.060Z,99451.08
2017-12-30T01:21:45.531Z,99452.59
2017-12-30T01:22:48.031Z,99453.56
2017-12-30T01:23:50.498Z,99454.13
2017-12-30T01:24:52.987Z,99445.91
2017-12-30T01:25:55.462Z,99443.34
2017-12-30T01:26:57.935Z,99451.56
2017-12-30T01:28:00.390Z,99454.70
2017-12-30T01:29:02.872Z,99451.56
2017-12-30T01:30:05.353Z,99455.84
2017-12-30T01:31:07.805Z,99451.73
2017-12-30T01:32:10.279Z,99453.10
2017-12-30T01:33:12.754Z,99452.30
2017-12-30T01:34:15.232Z,99441.91
2017-12-30T01:35:17.692Z,99451.33
2017-12-30T01:36:20.182Z,99445.28
2017-12-30T01:37:22.646Z,99440.38
2017-12-30T01:38:25.114Z,99449.80
2017-12-30T01:39:27.570Z,99439.23
2017-12-30T01:40:30.038Z,99435.52
2017-12-30T01:41:32.516Z,99436.72
2017-12-30T01:42:34.975Z,99429.87
2017-12-30T01:43:37.468Z,99427.52
2017-12-30T01:44:39.925Z,99427.52
2017-12-30T01:45:42.382Z,99424.38
2017-12-30T01:46:44.858Z,99418.91
2017-12-30T01:47:47.314Z,99416.16
2017-12-30T01:49:01.751Z,99418.50
2017-12-30T01:50:04.227Z,99415.36
2017-12-30T01:51:06.699Z,99413.42
2017-12-30T01:52:09.158Z,99412.22
2017-12-30T01:53:11.628Z,99409.48
2017-12-30T01:54:14.124Z,99408.11
2017-12-30T01:55:16.581Z,99405.37
2017-12-30T01:56:19.042Z,99402.62
2017-12-30T01:57:21.502Z,99399.09
2017-12-30T01:58:23.980Z,99403.20
2017-12-30T01:59:26.468Z,99406.91
2017-12-30T02:00:28.948Z,99404.17
2017-12-30T02:01:31.433Z,99403.77
2017-12-30T02:02:33.902Z,99405.94
2017-12-30T02:03:36.376Z,99395.55
2017-12-30T02:04:38.854Z,99397.89
2017-12-30T02:05:41.328Z,99398.86
2017-12-30T02:06:43.794Z,99400.00
2017-12-30T02:07:46.271Z,99399.59
2017-12-30T02:08:48.743Z,99398.40
2017-12-30T02:09:51.252Z,99397.59
2017-12-30T02:10:53.729Z,99400.68
2017-12-30T02:11:56.189Z,99402.22
2017-12-30T02:12:58.646Z,99399.82
2017-12-30T02:14:01.102Z,99390.80
2017-12-30T02:15:03.600Z,99396.22
2017-12-30T02:16:06.072Z,99390.91
2017-12-30T02:17:08.544Z,99396.16
2017-12-30T02:18:11.016Z,99388.68
2017-12-30T02:19:13.478Z,99398.81
2017-12-30T02:20:15.957Z,99388.19
2017-12-30T02:21:18.414Z,99390.36
2017-12-30T02:22:20.892Z,99388.59
2017-12-30T02:23:23.360Z,99385.45
2017-12-30T02:24:25.843Z,99377.23
2017-12-30T02:25:28.321Z,99372.72
2017-12-30T02:26:30.800Z,99368.20
2017-12-30T02:27:33.283Z,99366.27
2017-12-30T02:28:35.742Z,99357.82
2017-12-30T02:29:38.212Z,99362.10
2017-12-30T02:30:40.691Z,99355.42
2017-12-30T02:31:43.154Z,99352.45
2017-12-30T02:32:45.622Z,99351.66
2017-12-30T02:33:48.085Z,99352.80
2017-12-30T02:34:50.564Z,99351.19
2017-12-30T02:35:53.051Z,99349.88
2017-12-30T02:36:55.532Z,99344.57
2017-12-30T02:37:57.993Z,99336.13
2017-12-30T02:39:00.454Z,99329.84
2017-12-30T02:40:02.918Z,99327.51
2017-12-30T02:41:05.423Z,99322.03
2017-12-30T02:42:07.878Z,99321.80
2017-12-30T02:43:10.340Z,99322.37
2017-12-30T02:44:12.813Z,99311.75
2017-12-30T02:45:15.274Z,99323.67
2017-12-30T02:46:17.772Z,99317.56
2017-12-30T02:47:20.252Z,99319.91
2017-12-30T02:48:22.723Z,99318.31
2017-12-30T02:49:25.207Z,99317.08
2017-12-30T02:50:27.680Z,99321.36
2017-12-30T02:51:30.172Z,99326.04
2017-12-30T02:52:32.634Z,99325.64
2017-12-30T02:53:35.093Z,99327.18
2017-12-30T02:54:37.569Z,99328.32
2017-12-30T02:55:40.083Z,99328.32
2017-12-30T02:56:42.568Z,99327.69
2017-12-30T02:57:45.124Z,99329.06
2017-12-30T02:58:47.614Z,99327.46
2017-12-30T02:59:50.077Z,99328.66
2017-12-30T03:00:52.562Z,99330.77
2017-12-30T03:01:55.057Z,99333.51
2017-12-30T03:02:57.517Z,99324.09
2017-12-30T03:03:59.988Z,99327.80
2017-12-30T03:05:02.460Z,99323.69
2017-12-30T03:06:04.944Z,99319.75
2017-12-30T03:07:07.427Z,99320.16
2017-12-30T03:08:09.881Z,99319.92
2017-12-30T03:09:12.341Z,99317.59
2017-12-30T03:10:14.801Z,99312.91
2017-12-30T03:11:17.276Z,99313.20
2017-12-30T03:12:19.758Z,99317.99
2017-12-30T03:13:22.217Z,99310.89
2017-12-30T03:14:24.673Z,99310.27
2017-12-30T03:15:27.148Z,99311.02
2017-12-30T03:16:29.625Z,99297.34
2017-12-30T03:17:32.126Z,99297.69
2017-12-30T03:18:34.586Z,99295.69
2017-12-30T03:19:37.045Z,99297.20
2017-12-30T03:20:39.514Z,99283.20
2017-12-30T03:21:41.987Z,99277.44
2017-12-30T03:22:44.479Z,99274.80
2017-12-30T03:23:46.937Z,99275.00
2017-12-30T03:24:49.401Z,99277.84
2017-12-30T03:25:51.879Z,99276.93
2017-12-30T03:26:54.356Z,99281.67
2017-12-30T03:27:56.842Z,99286.06
2017-12-30T03:28:59.320Z,99276.69
2017-12-30T03:30:01.782Z,99276.12
2017-12-30T03:31:04.237Z,99275.14
2017-12-30T03:32:06.711Z,99274.75
2017-12-30T03:33:09.208Z,99275.72
2017-12-30T03:34:11.675Z,99283.55
2017-12-30T03:35:14.143Z,99281.38
2017-12-30T03:36:16.624Z,99283.72
2017-12-30T03:37:19.096Z,99284.86
2017-12-30T03:38:21.596Z,99286.58
2017-12-30T03:39:24.066Z,99281.44
2017-12-30T03:40:26.552Z,99278.07
2017-12-30T03:41:29.014Z,99272.98
2017-12-30T03:42:31.478Z,99274.41
2017-12-30T03:43:33.966Z,99269.95
2017-12-30T03:44:36.430Z,99270.75
2017-12-30T03:45:38.912Z,99265.50
2017-12-30T03:46:41.373Z,99261.21
2017-12-30T03:47:43.847Z,99264.35
2017-12-30T03:48:46.348Z,99267.09
2017-12-30T03:49:48.827Z,99260.41
2017-12-30T03:50:51.286Z,99260.76
2017-12-30T03:51:53.761Z,99265.45
2017-12-30T03:52:56.240Z,99261.91
2017-12-30T03:53:58.726Z,99269.91
2017-12-30T03:55:01.204Z,99274.19
2017-12-30T03:56:03.688Z,99275.73
2017-12-30T03:57:06.173Z,99272.59
2017-12-30T03:59:10.421Z,99274.93
2017-12-30T04:00:12.882Z,99264.53
2017-12-30T04:01:15.341Z,99261.00
2017-12-30T04:02:17.823Z,99256.66
2017-12-30T04:03:20.300Z,99254.48
2017-12-30T04:04:22.777Z,99263.11
2017-12-30T04:05:25.260Z,99264.66
2017-12-30T04:06:27.721Z,99264.26
2017-12-30T04:07:30.196Z,99260.31
2017-12-30T04:08:32.671Z,99258.72
2017-12-30T04:09:35.167Z,99260.41
2017-12-30T04:10:37.629Z,99259.38
2017-12-30T04:11:40.094Z,99257.16
2017-12-30T04:12:42.562Z,99260.02
2017-12-30T04:13:45.046Z,99256.82
2017-12-30T04:14:47.548Z,99254.83
2017-12-30T04:15:50.013Z,99254.20
2017-12-30T04:16:52.490Z,99261.00
2017-12-30T04:17:54.949Z,99260.73
2017-12-30T04:18:57.436Z,99261.66
2017-12-30T04:19:59.944Z,99253.37
2017-12-30T04:21:02.411Z,99255.72
2017-12-30T04:22:04.886Z,99251.95
2017-12-30T04:23:07.349Z,99248.41
2017-12-30T04:24:09.813Z,99246.59
2017-12-30T04:25:12.307Z,99248.53
2017-12-30T04:26:14.863Z,99245.39
2017-12-30T04:27:17.330Z,99243.05
2017-12-30T04:28:19.808Z,99243.73
2017-12-30T04:29:22.266Z,99245.84
2017-12-30T04:30:24.766Z,99245.98
2017-12-30T04:31:27.222Z,99245.22
2017-12-30T04:32:29.687Z,99239.58
2017-12-30T04:33:32.165Z,99251.78
2017-12-30T04:34:34.671Z,99244.75
2017-12-30T04:35:37.154Z,99252.69
2017-12-30T04:36:39.619Z,99242.22
2017-12-30T04:37:42.112Z,99250.20
2017-12-30T04:38:44.588Z,99250.33
2017-12-30T04:39:47.059Z,99243.92
2017-12-30T04:40:49.542Z,99250.61
2017-12-30T04:41:52.023Z,99247.47
2017-12-30T04:42:54.506Z,99234.55
2017-12-30T04:43:56.988Z,99240.61
2017-12-30T04:44:59.449Z,99235.70
2017-12-30T04:46:01.923Z,99236.33
2017-12-30T04:47:04.409Z,99234.55
2017-12-30T04:48:06.887Z,99237.87
2017-12-30T04:49:09.359Z,99235.92
2017-12-30T04:50:11.821Z,99245.52
2017-12-30T04:51:14.301Z,99242.21
2017-12-30T04:52:16.761Z,99253.18
2017-12-30T04:53:19.222Z,99247.64
2017-12-30T04:54:21.741Z,99248.22
2017-12-30T04:55:24.206Z,99242.11
2017-12-30T04:56:26.699Z,99236.00
2017-12-30T04:57:29.176Z,99233.00
2017-12-30T04:58:31.660Z,99221.80
2017-12-30T04:59:34.140Z,99219.86
2017-12-30T05:00:36.601Z,99215.92
2017-12-30T05:01:39.085Z,99216.66
2017-12-30T05:02:41.572Z,99223.52
2017-12-30T05:03:44.034Z,99225.02
2017-12-30T05:04:46.508Z,99221.88
2017-12-30T05:05:48.987Z,99220.67
2017-12-30T05:06:51.479Z,99219.66
2017-12-30T05:07:53.955Z,99222.75
2017-12-30T05:08:56.435Z,99222.30
2017-12-30T05:09:58.920Z,99225.78
2017-12-30T05:11:01.391Z,99215.30
2017-12-30T05:12:03.896Z,99206.45
2017-12-30T05:13:06.375Z,99207.03
2017-12-30T05:14:08.852Z,99209.69
2017-12-30T05:15:11.325Z,99208.09
2017-12-30T05:16:13.803Z,99215.12
2017-12-30T05:17:16.290Z,99213.17
2017-12-30T05:18:18.771Z,99213.75
2017-12-30T05:19:21.252Z,99218.03
2017-12-30T05:20:23.728Z,99218.95
2017-12-30T05:21:26.209Z,99218.73
2017-12-30T05:22:28.717Z,99221.07
2017-12-30T05:23:31.186Z,99219.30
2017-12-30T05:24:33.654Z,99218.11
2017-12-30T05:25:36.128Z,99211.42
2017-12-30T05:26:38.613Z,99210.58
2017-12-30T05:27:41.104Z,99216.05
2017-12-30T05:28:43.584Z,99208.80
2017-12-30T05:29:46.053Z,99211.55
2017-12-30T05:30:48.554Z,99204.52
2017-12-30T05:31:51.022Z,99200.68
2017-12-30T05:32:53.524Z,99203.53
2017-12-30T05:33:56.005Z,99195.31
2017-12-30T05:34:58.488Z,99203.33
2017-12-30T05:36:00.950Z,99199.02
2017-12-30T05:37:03.415Z,99199.99
2017-12-30T05:38:05.897Z,99202.66
2017-12-30T05:39:08.379Z,99209.22
2017-12-30T05:40:10.894Z,99221.44
2017-12-30T05:41:13.357Z,99227.77
2017-12-30T05:42:15.843Z,99221.97
2017-12-30T05:43:18.341Z,99223.34
2017-12-30T05:44:20.837Z,99231.97
2017-12-30T05:45:23.302Z,99239.00
2017-12-30T05:46:25.765Z,99232.69
2017-12-30T05:47:28.245Z,99231.74
2017-12-30T05:48:30.751Z,99225.83
2017-12-30T05:49:33.234Z,99224.23
2017-12-30T05:50:35.723Z,99219.09
2017-12-30T05:51:38.204Z,99212.81
2017-12-30T05:52:40.680Z,99208.47
2017-12-30T05:53:43.156Z,99206.88
2017-12-30T05:54:45.617Z,99201.78
2017-12-30T05:55:48.082Z,99199.22
2017-12-30T05:56:50.554Z,99200.94
2017-12-30T05:57:53.032Z,99189.74
2017-12-30T05:58:55.688Z,99196.95
2017-12-30T05:59:58.147Z,99198.84
2017-12-30T06:01:00.613Z,99193.14
2017-12-30T06:02:03.087Z,99186.63
2017-12-30T06:03:05.576Z,99187.92
2017-12-30T06:04:08.061Z,99195.13
2017-12-30T06:05:10.536Z,99187.02
2017-12-30T06:06:13.000Z,99182.69
2017-12-30T06:07:15.474Z,99181.89
2017-12-30T06:08:17.947Z,99182.06
2017-12-30T06:09:20.448Z,99183.61
2017-12-30T06:10:22.924Z,99186.34
2017-12-30T06:11:25.385Z,99190.63
2017-12-30T06:12:27.864Z,99185.90
2017-12-30T06:13:30.336Z,99178.02
2017-12-30T06:14:32.826Z,99177.40
2017-12-30T06:15:35.281Z,99164.00
2017-12-30T06:16:37.750Z,99157.09
2017-12-30T06:17:40.214Z,99152.34
2017-12-30T06:18:42.678Z,99154.23
2017-12-30T06:19:45.181Z,99154.98
2017-12-30T06:20:47.660Z,99153.55
2017-12-30T06:21:50.125Z,99153.33
2017-12-30T06:22:52.582Z,99134.84
2017-12-30T06:23:55.068Z,99141.06
2017-12-30T06:24:57.568Z,99128.25
2017-12-30T06:26:00.046Z,99121.52
2017-12-30T06:27:02.523Z,99114.22
2017-12-30T06:28:04.985Z,99112.41
2017-12-30T06:29:07.451Z,99107.89
2017-12-30T06:30:09.951Z,99107.89
2017-12-30T06:31:12.414Z,99093.84
2017-12-30T06:32:14.973Z,99099.55
2017-12-30T06:33:17.442Z,99095.48
2017-12-30T06:34:19.910Z,99083.14
2017-12-30T06:35:22.411Z,99078.06
2017-12-30T06:36:24.895Z,99076.47
2017-12-30T06:37:27.358Z,99071.16
2017-12-30T06:38:30.812Z,99060.77
2017-12-30T06:39:33.293Z,99052.67
2017-12-30T06:40:35.818Z,99051.25
2017-12-30T06:41:38.285Z,99046.70
2017-12-30T06:42:40.764Z,99033.74
2017-12-30T06:43:43.244Z,99032.55
2017-12-30T06:44:45.725Z,99035.61
2017-12-30T06:45:48.220Z,99039.89
2017-12-30T06:46:50.681Z,99037.72
2017-12-30T06:47:53.159Z,99037.33
2017-12-30T06:48:55.639Z,99031.75
2017-12-30T06:49:58.101Z,99031.27
2017-12-30T06:51:00.618Z,99025.71
2017-12-30T06:52:03.091Z,99019.80
2017-12-30T06:53:05.568Z,99026.12
2017-12-30T06:54:08.026Z,99018.46
2017-12-30T06:55:10.486Z,99010.45
2017-12-30T06:56:12.987Z,99003.11
2017-12-30T06:57:15.449Z,98991.08
2017-12-30T06:58:17.910Z,98996.91
2017-12-30T06:59:20.391Z,98982.03
2017-12-30T07:00:22.871Z,98985.40
2017-12-30T07:01:25.370Z,98978.59
2017-12-30T07:02:27.852Z,98976.64
2017-12-30T07:03:30.328Z,98980.36
2017-12-30T07:04:32.799Z,98982.08
2017-12-30T07:05:35.271Z,98986.38
2017-12-30T07:06:37.768Z,98987.75
2017-12-30T07:07:40.225Z,98981.06
2017-12-30T07:08:42.682Z,98979.87
2017-12-30T07:09:45.142Z,98980.23
2017-12-30T07:10:47.610Z,98976.69
2017-12-30T07:11:50.106Z,98972.92
2017-12-30T07:12:52.583Z,98970.94
2017-12-30T07:13:55.068Z,98968.12
2017-12-30T07:14:57.530Z,98962.99
2017-12-30T07:15:59.986Z,98957.46
2017-12-30T07:17:02.512Z,98958.39
2017-12-30T07:18:04.956Z,98945.83
2017-12-30T07:19:07.432Z,98949.50
2017-12-30T07:20:09.898Z,98951.45
2017-12-30T07:21:12.359Z,98944.95
2017-12-30T07:22:14.838Z,98950.78
2017-12-30T07:23:17.316Z,98959.73
2017-12-30T07:24:19.784Z,98954.20
2017-12-30T07:25:22.251Z,98955.72
2017-12-30T07:26:24.723Z,98946.95
2017-12-30T07:27:27.213Z,98941.30
2017-12-30T07:28:29.674Z,98949.28
2017-12-30T07:29:32.134Z,98948.05
2017-12-30T07:30:34.612Z,98943.02
2017-12-30T07:31:37.082Z,98942.00
2017-12-30T07:32:39.561Z,98940.13
2017-12-30T07:33:42.036Z,98929.61
2017-12-30T07:34:44.514Z,98929.41
2017-12-30T07:35:46.992Z,98924.84
2017-12-30T07:36:49.464Z,98909.42
2017-12-30T07:37:51.964Z,98917.66
2017-12-30T07:38:54.429Z,98913.98
2017-12-30T07:39:56.894Z,98911.05
2017-12-30T07:40:59.354Z,98906.36
2017-12-30T07:42:01.843Z,98909.50
2017-12-30T07:43:04.351Z,98914.38
2017-12-30T07:44:06.810Z,98901.41
2017-12-30T07:45:09.288Z,98897.87
2017-12-30T07:46:11.751Z,98890.97
2017-12-30T07:47:14.290Z,98895.41
2017-12-30T07:48:16.795Z,98890.86
2017-12-30T07:49:19.254Z,98884.53
2017-12-30T07:50:21.728Z,98880.13
2017-12-30T07:51:24.185Z,98879.70
2017-12-30T07:52:26.656Z,98879.25
2017-12-30T07:53:29.138Z,98875.28
2017-12-30T07:54:31.611Z,98883.25
2017-12-30T07:55:34.069Z,98878.70
2017-12-30T07:56:36.638Z,98869.20
2017-12-30T07:57:39.115Z,98861.52
2017-12-30T07:58:41.611Z,98863.82
2017-12-30T07:59:44.088Z,98856.35
2017-12-30T08:00:46.553Z,98859.23
2017-12-30T08:01:49.024Z,98854.68
2017-12-30T08:02:51.490Z,98854.82
2017-12-30T08:03:54.025Z,98848.07
2017-12-30T08:04:56.481Z,98843.92
2017-12-30T08:05:58.930Z,98846.84
2017-12-30T08:07:01.408Z,98829.38
2017-12-30T08:08:03.888Z,98836.63
2017-12-30T08:09:06.371Z,98826.59
2017-12-30T08:10:08.852Z,98820.48
2017-12-30T08:11:11.332Z,98814.97
2017-12-30T08:12:13.809Z,98806.13
2017-12-30T08:13:16.279Z,98804.75
2017-12-30T08:14:18.784Z,98803.73
2017-12-30T08:15:21.276Z,98805.33
2017-12-30T08:16:23.748Z,98808.91
2017-12-30T08:17:26.214Z,98809.78
2017-12-30T08:18:28.687Z,98804.08
2017-12-30T08:19:31.188Z,98802.43
2017-12-30T08:20:33.646Z,98801.79
2017-12-30T08:21:36.110Z,98798.61
2017-12-30T08:22:38.573Z,98803.31
2017-12-30T08:23:41.045Z,98801.50
2017-12-30T08:24:43.548Z,98799.66
2017-12-30T08:25:46.036Z,98798.20
2017-12-30T08:26:48.512Z,98787.05
2017-12-30T08:27:50.980Z,98784.95
2017-12-30T08:28:53.442Z,98780.65
2017-12-30T08:29:55.918Z,98784.95
2017-12-30T08:30:58.397Z,98786.53
2017-12-30T08:32:00.862Z,98784.55
2017-12-30T08:33:03.335Z,98784.73
2017-12-30T08:34:05.820Z,98782.75
2017-12-30T08:35:08.302Z,98780.40
2017-12-30T08:36:10.784Z,98781.06
2017-12-30T08:37:13.246Z,98780.41
2017-12-30T08:38:15.697Z,98786.38
2017-12-30T08:39:18.176Z,98774.28
2017-12-30T08:40:20.735Z,98776.09
2017-12-30T08:41:23.197Z,98769.66
2017-12-30T08:42:25.653Z,98773.53
2017-12-30T08:43:28.133Z,98764.42
2017-12-30T08:44:30.622Z,98766.55
2017-12-30T08:45:33.120Z,98755.05
2017-12-30T08:46:35.574Z,98749.34
2017-12-30T08:47:38.038Z,98749.38
2017-12-30T08:48:40.493Z,98737.32
2017-12-30T08:49:42.954Z,98735.41
2017-12-30T08:50:45.478Z,98736.59
2017-12-30T08:51:47.951Z,98740.62
2017-12-30T08:52:50.432Z,98741.83
2017-12-30T08:53:52.909Z,98739.19
2017-12-30T08:54:55.397Z,98730.56
2017-12-30T08:55:57.900Z,98723.80
2017-12-30T08:57:00.366Z,98733.08
2017-12-30T08:58:02.830Z,98727.28
2017-12-30T08:59:05.300Z,98717.77
2017-12-30T09:00:07.788Z,98714.71
2017-12-30T09:01:10.347Z,98726.88
2017-12-30T09:02:12.824Z,98712.42
2017-12-30T09:03:15.367Z,98717.48
2017-12-30T09:04:17.823Z,98711.77
2017-12-30T09:05:20.274Z,98708.79
2017-12-30T09:06:22.745Z,98704.05
2017-12-30T09:07:25.207Z,98709.99
2017-12-30T09:08:27.661Z,98714.14
2017-12-30T09:09:30.114Z,98720.09
2017-12-30T09:10:32.604Z,98730.00
2017-12-30T09:11:35.077Z,98734.36
2017-12-30T09:12:37.533Z,98720.80
2017-12-30T09:13:39.977Z,98727.52
2017-12-30T09:14:42.444Z,98732.62
2017-12-30T09:15:44.928Z,98726.12
2017-12-30T09:16:47.378Z,98723.90
2017-12-30T09:17:49.844Z,98724.84
2017-12-30T09:18:52.438Z,98725.88
2017-12-30T09:19:54.939Z,98723.55
2017-12-30T09:20:57.400Z,98722.55
2017-12-30T09:21:59.888Z,98728.34
2017-12-30T09:23:02.362Z,98733.84
2017-12-30T09:24:04.828Z,98741.77
2017-12-30T09:25:07.299Z,98745.20
2017-12-30T09:26:09.751Z,98725.00
2017-12-30T09:27:12.221Z,98735.42
2017-12-30T09:28:14.687Z,98742.53
2017-12-30T09:29:17.153Z,98730.38
2017-12-30T09:30:19.619Z,98735.27
2017-12-30T09:31:22.074Z,98732.46
2017-12-30T09:32:24.598Z,98722.23
2017-12-30T09:33:27.050Z,98723.92
2017-12-30T09:34:29.514Z,98728.09
2017-12-30T09:35:31.980Z,98730.00
2017-12-30T09:36:34.434Z,98728.89
2017-12-30T09:37:36.927Z,98734.02
2017-12-30T09:38:39.396Z,98739.44
2017-12-30T09:39:41.857Z,98723.11
2017-12-30T09:40:44.326Z,98730.83
2017-12-30T09:41:46.778Z,98732.16
2017-12-30T09:42:49.254Z,98728.36
2017-12-30T09:43:51.720Z,98727.87
2017-12-30T09:44:54.189Z,98716.75
2017-12-30T09:45:56.651Z,98718.55
2017-12-30T09:46:59.115Z,98716.45
2017-12-30T09:48:01.585Z,98716.59
2017-12-30T09:49:04.044Z,98721.14
2017-12-30T09:50:06.536Z,98721.09
2017-12-30T09:51:09.000Z,98724.98
2017-12-30T09:52:11.484Z,98720.23
2017-12-30T09:53:13.957Z,98720.23
2017-12-30T09:54:16.509Z,98726.09
2017-12-30T09:55:18.976Z,98722.34
2017-12-30T09:56:21.452Z,98720.38
2017-12-30T09:57:23.897Z,98718.44
2017-12-30T09:58:26.421Z,98718.48
2017-12-30T09:59:28.886Z,98719.78
2017-12-30T10:00:31.352Z,98724.35
2017-12-30T10:01:33.801Z,98726.56
2017-12-30T10:02:36.263Z,98720.30
2017-12-30T10:03:38.754Z,98721.09
2017-12-30T10:04:41.294Z,98718.92
2017-12-30T10:05:43.747Z,98714.80
2017-12-30T10:06:46.205Z,98708.48
2017-12-30T10:07:48.684Z,98704.70
2017-12-30T10:08:51.183Z,98724.52
2017-12-30T10:09:53.685Z,98716.83
2017-12-30T10:10:56.120Z,98716.53
2017-12-30T10:11:58.570Z,98715.30
2017-12-30T10:13:01.030Z,98711.08
2017-12-30T10:14:03.498Z,98706.32
2017-12-30T10:15:05.950Z,98703.72
2017-12-30T10:16:08.420Z,98699.13
2017-12-30T10:17:10.873Z,98704.73
2017-12-30T10:18:13.336Z,98704.47
2017-12-30T10:19:15.828Z,98697.73
2017-12-30T10:20:18.282Z,98693.71
2017-12-30T10:21:20.745Z,98696.02
2017-12-30T10:22:23.219Z,98689.05
2017-12-30T10:23:25.683Z,98694.44
2017-12-30T10:24:28.172Z,98698.50
2017-12-30T10:25:30.656Z,98691.17
2017-12-30T10:26:33.136Z,98686.92
2017-12-30T10:27:35.586Z,98688.43
2017-12-30T10:28:38.042Z,98685.42
2017-12-30T10:29:40.517Z,98692.00
2017-12-30T10:30:42.974Z,98682.52
2017-12-30T10:31:45.443Z,98683.25
2017-12-30T10:32:47.912Z,98682.80
2017-12-30T10:33:50.377Z,98679.79
2017-12-30T10:34:52.854Z,98684.04
2017-12-30T10:35:55.312Z,98687.34
2017-12-30T10:36:57.762Z,98688.05
2017-12-30T10:38:00.230Z,98698.95
2017-12-30T10:39:02.685Z,98687.72
2017-12-30T10:40:05.176Z,98679.22
2017-12-30T10:41:07.625Z,98685.05
2017-12-30T10:42:10.078Z,98689.66
2017-12-30T10:43:12.552Z,98682.16
2017-12-30T10:44:15.006Z,98681.12
2017-12-30T10:45:17.478Z,98674.98
2017-12-30T10:46:19.945Z,98672.37
2017-12-30T10:47:22.398Z,98678.16
2017-12-30T10:48:24.846Z,98678.71
2017-12-30T10:49:27.306Z,98682.19
2017-12-30T10:50:29.838Z,98697.84
2017-12-30T10:51:32.315Z,98694.45
2017-12-30T10:52:34.780Z,98684.17
2017-12-30T10:53:37.254Z,98687.86
2017-12-30T10:54:39.709Z,98687.61
2017-12-30T10:55:42.186Z,98682.27
2017-12-30T10:56:44.656Z,98680.48
2017-12-30T10:57:47.119Z,98681.20
2017-12-30T10:58:49.570Z,98687.05
2017-12-30T10:59:52.032Z,98692.48
2017-12-30T11:00:58.482Z,98705.37
2017-12-30T11:02:00.943Z,98695.34
2017-12-30T11:03:03.390Z,98699.43
2017-12-30T11:04:05.860Z,98702.32
2017-12-30T11:05:08.323Z,98711.31
2017-12-30T11:06:10.800Z,98709.11
2017-12-30T11:07:13.272Z,98713.16
2017-12-30T11:08:15.721Z,98724.28
2017-12-30T11:09:18.173Z,98724.65
2017-12-30T11:10:20.626Z,98718.73
2017-12-30T11:11:23.117Z,98721.04
2017-12-30T11:12:25.580Z,98726.67
2017-12-30T11:13:28.043Z,98737.03
2017-12-30T11:14:30.528Z,98740.14
2017-12-30T11:15:32.978Z,98739.67
2017-12-30T11:16:35.468Z,98737.87
2017-12-30T11:17:37.932Z,98736.67
2017-12-30T11:18:40.396Z,98733.50
2017-12-30T11:19:42.851Z,98739.34
2017-12-30T11:20:45.328Z,98734.63
2017-12-30T11:21:47.812Z,98730.25
2017-12-30T11:22:50.276Z,98740.22
2017-12-30T11:23:52.726Z,98734.11
2017-12-30T11:24:55.178Z,98731.70
2017-12-30T11:25:58.808Z,98729.14
2017-12-30T11:27:01.311Z,98734.98
2017-12-30T11:28:03.777Z,98728.31
2017-12-30T11:29:06.265Z,98734.19
2017-12-30T11:30:08.760Z,98731.84
2017-12-30T11:31:11.244Z,98737.91
2017-12-30T11:32:13.743Z,98730.25
2017-12-30T11:33:16.205Z,98748.88
2017-12-30T11:34:18.674Z,98750.24
2017-12-30T11:35:21.146Z,98753.96
2017-12-30T11:36:23.614Z,98755.73
2017-12-30T11:37:26.098Z,98745.30
2017-12-30T11:38:28.575Z,98746.95
2017-12-30T11:39:31.076Z,98749.59
2017-12-30T11:40:33.538Z,98746.95
2017-12-30T11:41:36.008Z,98756.34
2017-12-30T11:42:38.490Z,98753.38
2017-12-30T11:43:40.982Z,98750.85
2017-12-30T11:44:43.458Z,98739.31
2017-12-30T11:45:45.944Z,98741.48
2017-12-30T11:46:48.410Z,98745.27
2017-12-30T11:47:50.908Z,98745.88
2017-12-30T11:48:53.374Z,98750.34
2017-12-30T11:49:55.852Z,98739.89
2017-12-30T11:50:58.331Z,98752.22
2017-12-30T11:52:00.812Z,98756.91
2017-12-30T11:53:03.320Z,98759.26
2017-12-30T11:54:05.815Z,98755.72
2017-12-30T11:55:08.301Z,98756.30
2017-12-30T11:56:10.770Z,98752.58
2017-12-30T11:57:13.243Z,98753.56
2017-12-30T11:58:15.729Z,98756.12
2017-12-30T11:59:18.465Z,98756.48
2017-12-30T12:00:20.936Z,98759.22
2017-12-30T12:01:23.419Z,98762.53
2017-12-30T12:02:26.791Z,98753.56
2017-12-30T12:03:29.287Z,98768.81
2017-12-30T12:04:31.756Z,98764.84
2017-12-30T12:05:34.224Z,98765.95
2017-12-30T12:06:36.704Z,98768.66
2017-12-30T12:07:39.180Z,98759.13
2017-12-30T12:08:41.665Z,98764.14
2017-12-30T12:09:44.141Z,98759.73
2017-12-30T12:10:46.660Z,98749.88
2017-12-30T12:11:49.164Z,98757.23
2017-12-30T12:12:51.659Z,98760.33
2017-12-30T12:13:54.142Z,98762.23
2017-12-30T12:14:56.601Z,98769.44